Time;durP1;ratioP1;P1;durP2;ratioP2;P2;SDS_P1;SDS_P2;PMS_P1;PMS_P2;Temp;Humidity;BMP_temperature;BMP_pressure;BME280_temperature;BME280_humidity;BME280_pressure;Samples;Min_cycle;Max_cycle;Signal;HPM_P1;HPM_P2
2022/01/02 00:02:21;;;;;;;15.55;4.38;;;;;;;;;;6172821;23;20032;-48
2022/01/02 00:04:48;;;;;;;14.50;5.15;;;;;;;;;;6173313;23;20780;-44
2022/01/02 00:07:14;;;;;;;13.55;4.03;;;;;;;;;;6169603;23;20341;-45
2022/01/02 00:09:43;;;;;;;14.82;4.32;;;;;;;;;;6171226;23;20005;-47
2022/01/02 00:12:10;;;;;;;19.90;5.53;;;;;;;;;;6172229;23;20024;-45
2022/01/02 00:14:37;;;;;;;14.60;4.85;;;;;;;;;;6155184;23;20260;-47
2022/01/02 00:17:03;;;;;;;19.67;4.93;;;;;;;;;;6142756;23;20010;-47
2022/01/02 00:19:30;;;;;;;16.02;4.68;;;;;;;;;;6142820;23;20473;-48
2022/01/02 00:21:59;;;;;;;19.80;4.50;;;;;;;;;;6142974;23;20013;-46
2022/01/02 00:24:26;;;;;;;16.15;6.05;;;;;;;;;;6143192;23;20030;-44
2022/01/02 00:26:53;;;;;;;15.57;4.60;;;;;;;;;;6143412;23;20088;-45
2022/01/02 00:29:19;;;;;;;13.77;4.65;;;;;;;;;;6142897;23;20013;-44
2022/01/02 00:31:45;;;;;;;13.60;4.63;;;;;;;;;;6143208;23;20021;-45
2022/01/02 00:34:10;;;;;;;17.10;4.97;;;;;;;;;;6143513;23;20017;-42
2022/01/02 00:36:36;;;;;;;13.93;4.80;;;;;;;;;;6143118;23;20429;-44
2022/01/02 00:39:02;;;;;;;16.83;5.35;;;;;;;;;;6143523;23;20525;-45
2022/01/02 00:41:43;;;;;;;13.60;4.07;;;;;;;;;;6143308;23;20017;-45
2022/01/02 00:44:08;;;;;;;15.85;4.53;;;;;;;;;;6143126;23;20164;-47
2022/01/02 00:46:36;;;;;;;11.48;5.10;;;;;;;;;;6142838;23;20033;-45
2022/01/02 00:49:03;;;;;;;13.45;4.47;;;;;;;;;;6143039;23;20005;-45
2022/01/02 00:51:28;;;;;;;15.68;5.32;;;;;;;;;;6142493;23;20018;-46
2022/01/02 00:53:55;;;;;;;10.30;4.40;;;;;;;;;;6116686;23;20323;-45
2022/01/02 00:56:24;;;;;;;14.93;3.85;;;;;;;;;;6143683;23;20084;-47
2022/01/02 00:58:51;;;;;;;10.57;4.30;;;;;;;;;;6143164;23;20016;-45
2022/01/02 01:01:18;;;;;;;11.57;3.38;;;;;;;;;;6143582;23;20026;-48
2022/01/02 01:03:45;;;;;;;13.73;4.30;;;;;;;;;;6145423;23;20013;-45
2022/01/02 01:06:10;;;;;;;14.20;4.82;;;;;;;;;;6145210;23;20164;-43
2022/01/02 01:08:36;;;;;;;11.23;3.92;;;;;;;;;;6146583;23;20518;-47
2022/01/02 01:11:04;;;;;;;16.63;4.75;;;;;;;;;;6146024;23;20002;-44
2022/01/02 01:13:30;;;;;;;11.32;4.78;;;;;;;;;;6146067;23;20447;-47
2022/01/02 01:15:55;;;;;;;12.70;3.40;;;;;;;;;;6145905;23;20093;-44
2022/01/02 01:18:22;;;;;;;16.33;4.22;;;;;;;;;;6145652;23;20134;-46
2022/01/02 01:20:47;;;;;;;14.95;5.13;;;;;;;;;;6145852;23;20073;-48
2022/01/02 01:23:16;;;;;;;12.65;4.10;;;;;;;;;;6145655;23;20018;-45
2022/01/02 01:25:46;;;;;;;7.78;3.25;;;;;;;;;;6145750;23;20084;-45
2022/01/02 01:28:12;;;;;;;11.48;3.83;;;;;;;;;;6119956;23;20014;-46
2022/01/02 01:30:37;;;;;;;12.52;3.67;;;;;;;;;;6145895;23;20010;-46
2022/01/02 01:33:02;;;;;;;6.90;3.28;;;;;;;;;;6146790;23;20375;-46
2022/01/02 01:35:28;;;;;;;8.82;3.97;;;;;;;;;;6145230;23;20014;-46
2022/01/02 01:37:53;;;;;;;8.25;3.03;;;;;;;;;;6146783;23;20009;-44
2022/01/02 01:40:18;;;;;;;9.25;3.25;;;;;;;;;;6145230;23;20010;-45
2022/01/02 01:42:55;;;;;;;7.40;2.97;;;;;;;;;;6146474;23;20458;-45
2022/01/02 01:47:47;;;;;;;10.25;4.05;;;;;;;;;;6146826;23;20013;-45
2022/01/02 01:50:12;;;;;;;12.95;3.53;;;;;;;;;;6145188;23;20024;-46
2022/01/02 01:52:38;;;;;;;10.48;3.35;;;;;;;;;;6146565;23;20338;-45
2022/01/02 01:55:04;;;;;;;10.88;3.03;;;;;;;;;;6146068;23;20005;-46
2022/01/02 01:57:29;;;;;;;15.95;3.50;;;;;;;;;;6145866;23;20025;-45
2022/01/02 01:59:54;;;;;;;8.57;3.22;;;;;;;;;;6145447;23;20001;-46
2022/01/02 02:02:21;;;;;;;8.38;2.97;;;;;;;;;;6146092;23;20430;-46
2022/01/02 02:04:47;;;;;;;10.77;3.65;;;;;;;;;;6147713;23;20028;-45
2022/01/02 02:07:14;;;;;;;10.88;2.92;;;;;;;;;;6147501;23;20013;-46
2022/01/02 02:10:11;;;;;;;12.43;3.55;;;;;;;;;;6147675;23;20048;-48
2022/01/02 02:12:25;;;;;;;9.23;3.92;;;;;;;;;;6146385;23;20013;-46
2022/01/02 02:14:51;;;;;;;10.10;4.38;;;;;;;;;;6147991;23;20036;-49
2022/01/02 02:17:16;;;;;;;7.57;3.05;;;;;;;;;;6146500;23;20020;-45
2022/01/02 02:19:41;;;;;;;10.30;3.30;;;;;;;;;;6148104;23;20017;-46
2022/01/02 02:22:07;;;;;;;6.88;2.75;;;;;;;;;;6147366;23;20021;-49
2022/01/02 02:24:32;;;;;;;11.52;2.85;;;;;;;;;;6147437;23;20017;-45
2022/01/02 02:26:57;;;;;;;9.63;3.50;;;;;;;;;;6147384;23;20116;-45
2022/01/02 02:29:23;;;;;;;12.40;3.45;;;;;;;;;;6146560;23;20096;-45
2022/01/02 02:31:49;;;;;;;11.07;3.40;;;;;;;;;;6148287;23;20014;-45
2022/01/02 02:34:14;;;;;;;9.95;3.40;;;;;;;;;;6146769;23;20513;-45
2022/01/02 02:36:39;;;;;;;9.98;3.13;;;;;;;;;;6147863;23;20017;-49
2022/01/02 02:39:04;;;;;;;6.68;2.90;;;;;;;;;;6147448;23;20006;-46
2022/01/02 02:41:34;;;;;;;10.77;3.05;;;;;;;;;;6147568;23;20021;-45
2022/01/02 02:44:09;;;;;;;12.13;3.15;;;;;;;;;;6146889;23;20021;-45
2022/01/02 02:49:18;;;;;;;10.68;3.28;;;;;;;;;;6147291;23;20024;-45
2022/01/02 02:51:54;;;;;;;10.40;2.97;;;;;;;;;;6147440;23;20006;-45
2022/01/02 02:54:20;;;;;;;9.85;2.95;;;;;;;;;;6147315;23;20331;-47
2022/01/02 02:56:59;;;;;;;5.85;3.33;;;;;;;;;;6147331;23;20009;-45
2022/01/02 02:59:27;;;;;;;10.30;2.80;;;;;;;;;;6147029;23;20530;-47
2022/01/02 03:01:53;;;;;;;6.97;2.80;;;;;;;;;;6146919;23;20353;-45
2022/01/02 03:04:19;;;;;;;7.47;3.15;;;;;;;;;;6146302;23;20443;-50
2022/01/02 03:06:45;;;;;;;7.82;3.55;;;;;;;;;;6147816;23;20006;-47
2022/01/02 03:09:10;;;;;;;10.25;2.70;;;;;;;;;;6147173;23;20029;-49
2022/01/02 03:11:37;;;;;;;8.68;2.97;;;;;;;;;;6147329;23;20013;-50
2022/01/02 03:14:03;;;;;;;7.50;2.10;;;;;;;;;;6147110;23;20009;-48
2022/01/02 03:16:28;;;;;;;10.57;3.58;;;;;;;;;;6146889;23;20023;-46
2022/01/02 03:18:54;;;;;;;9.98;3.35;;;;;;;;;;6147204;23;20101;-46
2022/01/02 03:21:20;;;;;;;6.78;2.20;;;;;;;;;;6145198;23;20036;-46
2022/01/02 03:23:45;;;;;;;6.90;3.03;;;;;;;;;;6146919;23;20022;-45
2022/01/02 03:26:10;;;;;;;12.00;2.70;;;;;;;;;;6146840;23;20013;-45
2022/01/02 03:28:36;;;;;;;9.90;3.08;;;;;;;;;;6147343;23;20009;-49
2022/01/02 03:31:01;;;;;;;5.65;2.75;;;;;;;;;;6147554;23;20005;-45
2022/01/02 03:33:27;;;;;;;6.65;3.03;;;;;;;;;;6146050;23;20017;-46
2022/01/02 03:35:52;;;;;;;8.25;2.97;;;;;;;;;;6147773;23;20013;-46
2022/01/02 03:38:18;;;;;;;7.70;3.22;;;;;;;;;;6095829;23;20016;-44
2022/01/02 03:40:43;;;;;;;8.45;3.47;;;;;;;;;;6147128;23;20020;-46
2022/01/02 03:43:08;;;;;;;7.20;3.30;;;;;;;;;;6147787;23;20037;-45
2022/01/02 03:45:33;;;;;;;10.25;3.97;;;;;;;;;;6146028;23;20018;-47
2022/01/02 03:47:59;;;;;;;8.18;3.50;;;;;;;;;;6147642;23;20013;-45
2022/01/02 03:50:24;;;;;;;7.57;3.13;;;;;;;;;;6129951;23;20485;-41
2022/01/02 03:52:49;;;;;;;5.70;2.40;;;;;;;;;;6172348;23;20036;-43
2022/01/02 03:55:14;;;;;;;8.80;3.05;;;;;;;;;;6176184;23;20017;-42
2022/01/02 03:57:40;;;;;;;4.88;2.60;;;;;;;;;;6177198;23;20007;-40
2022/01/02 04:00:07;;;;;;;11.30;2.90;;;;;;;;;;6176918;23;20437;-42
2022/01/02 04:02:32;;;;;;;11.75;2.85;;;;;;;;;;6174504;23;20445;-40
2022/01/02 04:04:57;;;;;;;5.57;2.53;;;;;;;;;;6177161;23;20023;-40
2022/01/02 04:07:23;;;;;;;6.22;2.13;;;;;;;;;;6173921;23;20005;-41
2022/01/02 04:09:50;;;;;;;6.90;2.50;;;;;;;;;;6150247;23;20429;-40
2022/01/02 04:12:16;;;;;;;3.78;1.75;;;;;;;;;;6175634;23;20024;-40
2022/01/02 04:14:41;;;;;;;3.50;1.85;;;;;;;;;;6177315;23;20009;-42
2022/01/02 04:17:06;;;;;;;2.65;1.67;;;;;;;;;;6177110;23;20033;-40
2022/01/02 04:19:32;;;;;;;5.88;2.05;;;;;;;;;;6175355;23;20013;-40
2022/01/02 04:21:57;;;;;;;3.30;1.63;;;;;;;;;;6176233;23;20013;-41
2022/01/02 04:24:22;;;;;;;6.10;1.63;;;;;;;;;;6176377;23;20021;-41
2022/01/02 04:26:47;;;;;;;4.35;1.73;;;;;;;;;;6150325;23;20017;-40
2022/01/02 04:29:13;;;;;;;4.50;1.63;;;;;;;;;;6176364;23;20017;-40
2022/01/02 04:31:38;;;;;;;2.45;1.33;;;;;;;;;;6175927;23;20088;-40
2022/01/02 04:34:03;;;;;;;3.33;1.63;;;;;;;;;;6177365;23;20059;-43
2022/01/02 04:36:29;;;;;;;6.55;1.70;;;;;;;;;;6175426;23;20013;-40
2022/01/02 04:38:54;;;;;;;5.55;2.10;;;;;;;;;;6174756;23;20024;-41
2022/01/02 04:41:19;;;;;;;3.15;1.40;;;;;;;;;;6176493;23;20063;-41
2022/01/02 04:43:44;;;;;;;7.00;1.33;;;;;;;;;;6176517;23;20055;-40
2022/01/02 04:46:10;;;;;;;2.15;1.10;;;;;;;;;;6176779;23;20020;-40
2022/01/02 04:48:35;;;;;;;3.60;1.15;;;;;;;;;;6176372;23;20104;-41
2022/01/02 04:51:00;;;;;;;3.17;1.25;;;;;;;;;;6175863;23;20025;-40
2022/01/02 04:53:25;;;;;;;7.35;1.63;;;;;;;;;;6175964;23;20426;-41
2022/01/02 04:55:51;;;;;;;2.42;0.93;;;;;;;;;;6176529;23;20013;-41
2022/01/02 04:58:17;;;;;;;2.97;0.98;;;;;;;;;;6175628;23;20100;-40
2022/01/02 05:00:42;;;;;;;3.67;1.58;;;;;;;;;;6176418;23;20005;-43
2022/01/02 05:03:08;;;;;;;6.13;1.50;;;;;;;;;;6176747;23;20126;-41
2022/01/02 05:05:33;;;;;;;2.58;1.67;;;;;;;;;;6175906;23;20013;-41
2022/01/02 05:07:58;;;;;;;5.10;1.50;;;;;;;;;;6176167;23;20017;-43
2022/01/02 05:10:23;;;;;;;1.95;0.70;;;;;;;;;;6175769;23;20009;-40
2022/01/02 05:12:49;;;;;;;0.82;0.73;;;;;;;;;;6176587;23;20040;-42
2022/01/02 05:15:14;;;;;;;1.73;0.90;;;;;;;;;;6175726;23;20013;-43
2022/01/02 05:17:39;;;;;;;3.65;0.70;;;;;;;;;;6176531;23;20029;-44
2022/01/02 05:20:05;;;;;;;2.42;0.68;;;;;;;;;;6175462;23;20012;-42
2022/01/02 05:22:30;;;;;;;2.35;1.27;;;;;;;;;;6175794;23;20454;-43
2022/01/02 05:24:56;;;;;;;3.00;0.70;;;;;;;;;;6175746;23;20032;-43
2022/01/02 05:27:21;;;;;;;3.90;1.45;;;;;;;;;;6175839;23;20092;-44
2022/01/02 05:29:46;;;;;;;6.38;1.00;;;;;;;;;;6175268;23;20012;-43
2022/01/02 05:32:11;;;;;;;4.15;1.48;;;;;;;;;;6176425;23;20495;-42
2022/01/02 05:34:37;;;;;;;3.55;1.23;;;;;;;;;;6176054;23;20083;-41
2022/01/02 05:37:02;;;;;;;2.92;1.30;;;;;;;;;;6177371;23;20080;-42
2022/01/02 05:39:27;;;;;;;4.15;1.38;;;;;;;;;;6177415;23;20020;-42
2022/01/02 05:41:52;;;;;;;3.30;1.67;;;;;;;;;;6178582;23;20396;-41
2022/01/02 05:44:18;;;;;;;8.57;1.98;;;;;;;;;;6176751;23;20410;-41
2022/01/02 05:46:44;;;;;;;4.75;1.40;;;;;;;;;;6178124;23;20009;-42
2022/01/02 05:49:10;;;;;;;5.78;1.60;;;;;;;;;;6177740;23;20456;-43
2022/01/02 05:51:35;;;;;;;4.43;1.05;;;;;;;;;;6177650;23;20049;-43
2022/01/02 05:54:02;;;;;;;5.30;1.83;;;;;;;;;;6177974;23;20029;-42
2022/01/02 05:56:27;;;;;;;6.18;1.05;;;;;;;;;;6151271;23;20392;-43
2022/01/02 05:58:52;;;;;;;2.83;1.00;;;;;;;;;;6177662;23;20433;-53
2022/01/02 06:01:18;;;;;;;3.88;1.30;;;;;;;;;;6177653;23;20013;-42
2022/01/02 06:03:43;;;;;;;2.67;1.00;;;;;;;;;;6178078;23;20021;-43
2022/01/02 06:06:08;;;;;;;5.18;1.55;;;;;;;;;;6178170;23;20009;-40
2022/01/02 06:08:34;;;;;;;3.78;1.88;;;;;;;;;;6177132;23;20343;-44
2022/01/02 06:10:59;;;;;;;5.05;1.73;;;;;;;;;;6151868;23;20013;-43
2022/01/02 06:13:24;;;;;;;2.22;1.02;;;;;;;;;;6177253;23;20092;-43
2022/01/02 06:15:50;;;;;;;5.75;1.77;;;;;;;;;;6178687;23;20433;-43
2022/01/02 06:18:15;;;;;;;3.28;1.13;;;;;;;;;;6176637;23;20019;-42
2022/01/02 06:20:40;;;;;;;4.35;1.88;;;;;;;;;;6177917;23;20453;-42
2022/01/02 06:23:06;;;;;;;2.17;0.95;;;;;;;;;;6177508;23;20013;-42
2022/01/02 06:25:31;;;;;;;3.70;1.13;;;;;;;;;;6177571;23;20482;-44
2022/01/02 06:27:56;;;;;;;6.68;1.40;;;;;;;;;;6177347;23;20067;-43
2022/01/02 06:30:22;;;;;;;9.18;2.45;;;;;;;;;;6177296;23;20012;-44
2022/01/02 06:32:54;;;;;;;3.28;1.00;;;;;;;;;;6177314;23;20468;-42
2022/01/02 06:35:19;;;;;;;3.75;1.27;;;;;;;;;;6151056;23;20590;-45
2022/01/02 06:37:45;;;;;;;3.20;1.00;;;;;;;;;;6177149;23;20013;-43
2022/01/02 06:40:10;;;;;;;3.08;1.42;;;;;;;;;;6177899;23;20017;-42
2022/01/02 06:42:35;;;;;;;4.13;1.25;;;;;;;;;;6176661;23;20084;-44
2022/01/02 06:45:00;;;;;;;6.70;1.48;;;;;;;;;;6178303;23;20025;-43
2022/01/02 06:47:26;;;;;;;5.63;1.00;;;;;;;;;;6175764;23;20021;-44
2022/01/02 06:49:51;;;;;;;1.63;0.98;;;;;;;;;;6177224;23;20036;-43
2022/01/02 06:52:16;;;;;;;2.60;0.77;;;;;;;;;;6176641;23;20013;-43
2022/01/02 06:54:41;;;;;;;4.47;1.33;;;;;;;;;;6178072;23;20059;-42
2022/01/02 06:57:07;;;;;;;4.05;1.27;;;;;;;;;;6177149;23;20075;-44
2022/01/02 06:59:32;;;;;;;6.00;1.23;;;;;;;;;;6177390;23;20087;-42
2022/01/02 07:01:57;;;;;;;3.10;1.08;;;;;;;;;;6177342;23;20819;-43
2022/01/02 07:04:23;;;;;;;3.92;1.38;;;;;;;;;;6177262;23;20369;-43
2022/01/02 07:06:48;;;;;;;1.48;1.38;;;;;;;;;;6177152;23;20020;-43
2022/01/02 07:09:13;;;;;;;7.13;1.50;;;;;;;;;;6177011;23;20024;-42
2022/01/02 07:11:38;;;;;;;2.33;1.15;;;;;;;;;;6176665;23;20020;-43
2022/01/02 07:14:04;;;;;;;2.58;0.93;;;;;;;;;;6177932;23;20493;-43
2022/01/02 07:16:29;;;;;;;3.40;0.70;;;;;;;;;;6176566;23;20017;-41
2022/01/02 07:18:54;;;;;;;2.33;0.95;;;;;;;;;;6178002;23;20087;-41
2022/01/02 07:21:20;;;;;;;1.52;0.85;;;;;;;;;;6175733;23;20386;-42
2022/01/02 07:23:45;;;;;;;2.83;1.10;;;;;;;;;;6177814;23;20017;-42
2022/01/02 07:26:10;;;;;;;4.03;1.38;;;;;;;;;;6176492;23;20017;-41
2022/01/02 07:28:36;;;;;;;2.63;1.00;;;;;;;;;;6177486;23;20013;-41
2022/01/02 07:31:01;;;;;;;7.30;1.90;;;;;;;;;;6176705;23;20529;-41
2022/01/02 07:33:26;;;;;;;3.78;1.17;;;;;;;;;;6176851;23;20009;-45
2022/01/02 07:35:52;;;;;;;5.07;1.23;;;;;;;;;;6176713;23;20009;-44
2022/01/02 07:38:17;;;;;;;2.10;1.17;;;;;;;;;;6150361;23;20345;-41
2022/01/02 07:40:42;;;;;;;2.30;1.00;;;;;;;;;;6177083;23;20091;-42
2022/01/02 07:43:07;;;;;;;1.63;0.82;;;;;;;;;;6177960;23;20044;-42
2022/01/02 07:45:33;;;;;;;2.53;0.80;;;;;;;;;;6175922;23;20016;-41
2022/01/02 07:47:58;;;;;;;3.50;0.88;;;;;;;;;;6177380;23;20067;-41
2022/01/02 07:50:24;;;;;;;2.15;1.10;;;;;;;;;;6175368;23;20025;-41
2022/01/02 07:52:52;;;;;;;3.60;0.95;;;;;;;;;;6177557;23;20013;-44
2022/01/02 07:55:17;;;;;;;2.05;0.95;;;;;;;;;;6176155;23;20515;-41
2022/01/02 07:57:42;;;;;;;4.32;2.03;;;;;;;;;;6177436;23;20009;-43
2022/01/02 08:00:08;;;;;;;4.18;0.90;;;;;;;;;;6176434;23;20009;-42
2022/01/02 08:02:33;;;;;;;3.67;1.10;;;;;;;;;;6176460;23;20005;-41
2022/01/02 08:04:58;;;;;;;3.47;1.30;;;;;;;;;;6176630;23;20071;-44
2022/01/02 08:07:23;;;;;;;1.80;1.10;;;;;;;;;;6176666;23;20009;-44
2022/01/02 08:09:49;;;;;;;6.00;1.98;;;;;;;;;;6176131;23;20016;-41
2022/01/02 08:12:14;;;;;;;2.97;0.80;;;;;;;;;;6176894;23;20052;-42
2022/01/02 08:14:39;;;;;;;4.68;1.50;;;;;;;;;;6176811;23;20009;-42
2022/01/02 08:17:04;;;;;;;4.82;1.17;;;;;;;;;;6177189;23;20433;-42
2022/01/02 08:19:30;;;;;;;1.00;0.73;;;;;;;;;;6175809;23;20032;-41
2022/01/02 08:21:55;;;;;;;3.22;1.15;;;;;;;;;;6150684;23;20012;-46
2022/01/02 08:24:20;;;;;;;4.47;2.00;;;;;;;;;;6175730;23;20092;-42
2022/01/02 08:26:46;;;;;;;2.97;1.15;;;;;;;;;;6176857;23;20005;-41
2022/01/02 08:29:11;;;;;;;0.95;0.80;;;;;;;;;;6175945;23;20573;-42
2022/01/02 08:31:37;;;;;;;2.53;0.80;;;;;;;;;;6176605;23;20358;-41
2022/01/02 08:34:02;;;;;;;1.92;0.82;;;;;;;;;;6176516;23;20476;-43
2022/01/02 08:36:27;;;;;;;2.25;0.77;;;;;;;;;;6176278;23;20076;-42
2022/01/02 08:38:53;;;;;;;2.08;1.02;;;;;;;;;;6176621;23;20040;-41
2022/01/02 08:41:18;;;;;;;2.42;0.93;;;;;;;;;;6175950;23;20024;-41
2022/01/02 08:43:43;;;;;;;1.75;0.93;;;;;;;;;;6176282;23;20017;-43
2022/01/02 08:46:09;;;;;;;7.15;0.80;;;;;;;;;;6176476;23;20040;-43
2022/01/02 08:48:34;;;;;;;2.30;0.77;;;;;;;;;;6176166;23;20005;-42
2022/01/02 08:51:00;;;;;;;2.00;0.90;;;;;;;;;;6175461;23;20649;-41
2022/01/02 08:53:27;;;;;;;0.98;0.50;;;;;;;;;;6176496;23;20080;-43
2022/01/02 08:55:52;;;;;;;1.08;0.88;;;;;;;;;;6176303;23;20024;-41
2022/01/02 08:58:19;;;;;;;2.17;0.60;;;;;;;;;;6176252;23;20017;-42
2022/01/02 09:00:44;;;;;;;2.97;1.23;;;;;;;;;;6176131;23;20013;-41
2022/01/02 09:03:09;;;;;;;0.35;0.30;;;;;;;;;;6176944;23;20075;-42
2022/01/02 09:05:35;;;;;;;1.40;0.55;;;;;;;;;;6149263;23;20419;-42
2022/01/02 09:08:00;;;;;;;2.42;0.93;;;;;;;;;;6176733;23;20012;-42
2022/01/02 09:10:25;;;;;;;0.70;0.52;;;;;;;;;;6174825;23;20366;-41
2022/01/02 09:12:50;;;;;;;5.90;0.85;;;;;;;;;;6176915;23;20017;-41
2022/01/02 09:15:16;;;;;;;3.28;0.77;;;;;;;;;;6175646;23;20013;-41
2022/01/02 09:17:41;;;;;;;1.40;0.80;;;;;;;;;;6176786;23;20021;-46
2022/01/02 09:20:07;;;;;;;1.70;0.70;;;;;;;;;;6176099;23;20012;-43
2022/01/02 09:22:32;;;;;;;2.05;0.73;;;;;;;;;;6175856;23;20263;-43
2022/01/02 09:24:58;;;;;;;2.47;0.68;;;;;;;;;;6176048;23;20095;-41
2022/01/02 09:27:23;;;;;;;3.15;0.70;;;;;;;;;;6176036;23;20009;-41
2022/01/02 09:29:48;;;;;;;1.08;0.45;;;;;;;;;;6175737;23;20452;-46
2022/01/02 09:32:13;;;;;;;3.00;1.10;;;;;;;;;;6175734;23;20092;-41
2022/01/02 09:34:39;;;;;;;3.97;0.80;;;;;;;;;;6175705;23;20090;-39
2022/01/02 09:37:04;;;;;;;1.33;0.60;;;;;;;;;;6150145;23;20345;-43
2022/01/02 09:39:30;;;;;;;1.45;0.65;;;;;;;;;;6175019;23;20036;-41
2022/01/02 09:41:55;;;;;;;1.02;0.70;;;;;;;;;;6176288;23;20059;-43
2022/01/02 09:44:20;;;;;;;1.08;0.40;;;;;;;;;;6174878;23;20052;-45
2022/01/02 09:46:46;;;;;;;2.05;0.50;;;;;;;;;;6176427;23;20463;-43
2022/01/02 09:49:12;;;;;;;1.77;0.60;;;;;;;;;;6175626;23;20012;-44
2022/01/02 09:51:37;;;;;;;0.50;0.50;;;;;;;;;;6176101;23;20017;-43
2022/01/02 09:54:03;;;;;;;0.63;0.50;;;;;;;;;;6149525;23;20024;-41
2022/01/02 09:56:28;;;;;;;0.57;0.43;;;;;;;;;;6176014;23;20009;-42
2022/01/02 09:58:53;;;;;;;0.52;0.38;;;;;;;;;;6176141;23;20483;-44
2022/01/02 10:01:20;;;;;;;1.35;0.65;;;;;;;;;;6175462;23;20432;-42
2022/01/02 10:03:46;;;;;;;1.85;0.68;;;;;;;;;;6175883;23;20426;-43
2022/01/02 10:06:12;;;;;;;2.38;0.57;;;;;;;;;;6175694;23;20008;-43
2022/01/02 10:08:37;;;;;;;0.25;0.25;;;;;;;;;;6175940;23;20063;-44
2022/01/02 10:11:09;;;;;;;2.75;0.50;;;;;;;;;;6176188;23;20358;-46
2022/01/02 10:13:46;;;;;;;2.50;0.50;;;;;;;;;;6175056;23;20088;-41
2022/01/02 10:16:22;;;;;;;2.22;0.40;;;;;;;;;;6175444;23;20013;-43
2022/01/02 10:18:52;;;;;;;0.95;0.52;;;;;;;;;;6176681;23;20434;-43
2022/01/02 10:21:46;;;;;;;0.77;0.45;;;;;;;;;;6147817;23;20039;-43
2022/01/02 10:24:13;;;;;;;0.63;0.30;;;;;;;;;;6144613;23;20024;-41
2022/01/02 10:26:38;;;;;;;0.30;0.30;;;;;;;;;;6177700;23;20100;-41
2022/01/02 10:29:10;;;;;;;2.90;0.82;;;;;;;;;;6177426;23;20079;-41
2022/01/02 10:31:36;;;;;;;3.10;0.70;;;;;;;;;;6176923;23;20016;-42
2022/01/02 10:34:01;;;;;;;1.48;0.68;;;;;;;;;;6177341;23;20092;-41
2022/01/02 10:36:34;;;;;;;1.83;0.70;;;;;;;;;;6176580;23;20025;-44
2022/01/02 10:39:00;;;;;;;2.85;0.60;;;;;;;;;;6177150;23;20064;-42
2022/01/02 10:41:33;;;;;;;2.13;0.60;;;;;;;;;;6177285;23;20009;-44
2022/01/02 10:44:22;;;;;;;2.20;0.73;;;;;;;;;;6177284;23;20017;-41
2022/01/02 10:47:06;;;;;;;0.77;0.50;;;;;;;;;;6153854;23;20005;-41
2022/01/02 10:49:49;;;;;;;1.38;0.50;;;;;;;;;;6177372;23;20449;-43
2022/01/02 10:52:17;;;;;;;2.58;0.80;;;;;;;;;;6117762;23;20032;-42
2022/01/02 10:54:43;;;;;;;1.20;0.70;;;;;;;;;;6118740;23;20014;-41
2022/01/02 10:57:08;;;;;;;1.70;0.50;;;;;;;;;;6115952;23;20068;-42
2022/01/02 10:59:34;;;;;;;1.38;0.70;;;;;;;;;;6115875;23;20021;-42
2022/01/02 11:01:59;;;;;;;1.50;0.70;;;;;;;;;;6118817;23;20033;-41
2022/01/02 11:04:30;;;;;;;1.02;0.60;;;;;;;;;;6117602;23;20026;-41
2022/01/02 11:06:55;;;;;;;3.13;1.17;;;;;;;;;;6119011;23;19998;-44
2022/01/02 11:09:21;;;;;;;1.23;0.80;;;;;;;;;;6117647;23;20024;-44
2022/01/02 11:11:46;;;;;;;1.00;0.43;;;;;;;;;;6118574;23;20014;-42
2022/01/02 11:14:13;;;;;;;0.50;0.50;;;;;;;;;;6117740;23;20440;-41
2022/01/02 11:16:38;;;;;;;0.90;0.90;;;;;;;;;;6118476;23;20020;-43
2022/01/02 11:19:04;;;;;;;2.42;0.65;;;;;;;;;;6118754;23;20037;-41
2022/01/02 11:21:30;;;;;;;0.45;0.43;;;;;;;;;;6116549;23;24131;-42
2022/01/02 11:24:06;;;;;;;1.20;0.70;;;;;;;;;;6118235;23;20453;-42
2022/01/02 11:26:39;;;;;;;1.05;0.60;;;;;;;;;;6117769;23;20101;-42
2022/01/02 11:29:05;;;;;;;1.52;0.35;;;;;;;;;;6116537;23;20025;-41
2022/01/02 11:31:36;;;;;;;1.48;0.55;;;;;;;;;;6116141;23;20014;-41
2022/01/02 11:34:19;;;;;;;2.17;0.63;;;;;;;;;;6113032;23;20040;-44
2022/01/02 11:36:44;;;;;;;3.50;1.30;;;;;;;;;;6114577;23;20014;-41
2022/01/02 11:39:10;;;;;;;1.73;0.47;;;;;;;;;;6115678;23;20507;-43
2022/01/02 11:41:38;;;;;;;0.60;0.40;;;;;;;;;;6113693;23;20045;-41
2022/01/02 11:44:05;;;;;;;1.10;0.55;;;;;;;;;;6115474;23;20069;-41
2022/01/02 11:46:49;;;;;;;1.63;0.40;;;;;;;;;;6114276;23;20017;-41
2022/01/02 11:49:14;;;;;;;0.47;0.30;;;;;;;;;;6114044;23;20445;-41
2022/01/02 11:51:49;;;;;;;1.65;0.82;;;;;;;;;;6164626;23;20021;-43
2022/01/02 11:54:32;;;;;;;1.50;0.70;;;;;;;;;;6173483;23;20016;-42
2022/01/02 11:56:59;;;;;;;1.77;0.70;;;;;;;;;;6173900;23;20009;-42
2022/01/02 11:59:40;;;;;;;3.08;1.00;;;;;;;;;;6173633;23;20033;-42
2022/01/02 12:02:26;;;;;;;3.53;1.17;;;;;;;;;;6174282;23;20016;-43
2022/01/02 12:05:18;;;;;;;1.27;0.88;;;;;;;;;;6172514;23;20021;-42
2022/01/02 12:07:50;;;;;;;2.70;1.00;;;;;;;;;;6173429;23;20033;-42
2022/01/02 12:10:22;;;;;;;2.28;1.13;;;;;;;;;;6174047;23;20028;-41
2022/01/02 12:13:00;;;;;;;1.77;0.88;;;;;;;;;;6149526;23;20437;-42
2022/01/02 12:15:34;;;;;;;2.35;1.00;;;;;;;;;;6177045;23;20098;-42
2022/01/02 12:18:06;;;;;;;4.90;1.10;;;;;;;;;;6150143;23;20326;-42
2022/01/02 12:20:50;;;;;;;2.85;0.93;;;;;;;;;;6175685;23;20575;-42
2022/01/02 12:23:30;;;;;;;1.52;0.90;;;;;;;;;;6173339;23;20088;-41
2022/01/02 12:25:59;;;;;;;2.13;1.13;;;;;;;;;;6174403;23;20020;-42
2022/01/02 12:28:25;;;;;;;3.87;1.20;;;;;;;;;;6174021;23;20013;-42
2022/01/02 12:30:51;;;;;;;3.60;1.20;;;;;;;;;;6175661;23;20238;-42
2022/01/02 12:33:26;;;;;;;4.20;1.30;;;;;;;;;;6176473;23;20024;-42
2022/01/02 12:35:52;;;;;;;1.45;1.30;;;;;;;;;;6176324;23;20041;-42
2022/01/02 12:38:17;;;;;;;5.53;1.63;;;;;;;;;;6176667;23;20024;-41
2022/01/02 12:40:42;;;;;;;7.68;2.15;;;;;;;;;;6176110;23;20013;-41
2022/01/02 12:43:11;;;;;;;2.38;1.25;;;;;;;;;;6176693;23;20009;-41
2022/01/02 12:45:36;;;;;;;2.33;0.82;;;;;;;;;;6175834;23;20021;-42
2022/01/02 12:48:01;;;;;;;2.20;1.38;;;;;;;;;;6150662;23;20075;-42
2022/01/02 12:50:28;;;;;;;2.30;1.20;;;;;;;;;;6174514;23;20032;-42
2022/01/02 12:52:54;;;;;;;4.00;0.95;;;;;;;;;;6125815;23;20009;-42
2022/01/02 12:55:20;;;;;;;2.85;1.08;;;;;;;;;;6175318;23;20040;-42
2022/01/02 12:57:45;;;;;;;7.15;1.38;;;;;;;;;;6176861;23;20001;-41
2022/01/02 13:00:11;;;;;;;4.38;1.38;;;;;;;;;;6174962;23;20009;-43
2022/01/02 13:02:36;;;;;;;3.20;1.30;;;;;;;;;;6149610;23;20438;-43
2022/01/02 13:05:03;;;;;;;2.58;1.20;;;;;;;;;;6175848;23;20438;-43
2022/01/02 13:07:35;;;;;;;3.03;1.30;;;;;;;;;;6175007;23;20001;-42
2022/01/02 13:10:03;;;;;;;4.78;1.05;;;;;;;;;;6175786;23;20036;-46
2022/01/02 13:12:29;;;;;;;1.75;0.80;;;;;;;;;;6175494;23;20013;-42
2022/01/02 13:14:58;;;;;;;2.45;0.93;;;;;;;;;;6150028;23;20021;-46
2022/01/02 13:17:23;;;;;;;3.78;1.13;;;;;;;;;;6175501;23;20441;-45
2022/01/02 13:20:09;;;;;;;2.92;1.30;;;;;;;;;;6176658;23;20063;-44
2022/01/02 13:22:35;;;;;;;2.10;1.40;;;;;;;;;;6174851;23;20135;-42
2022/01/02 13:25:05;;;;;;;2.03;0.73;;;;;;;;;;6175650;23;20160;-44
2022/01/02 13:27:30;;;;;;;1.77;0.70;;;;;;;;;;6175472;23;20024;-45
2022/01/02 13:29:55;;;;;;;3.08;1.27;;;;;;;;;;6175617;23;20013;-45
2022/01/02 13:32:20;;;;;;;2.00;1.17;;;;;;;;;;6175909;23;20097;-43
2022/01/02 13:35:12;;;;;;;2.58;0.95;;;;;;;;;;6175719;23;20005;-42
2022/01/02 13:37:44;;;;;;;5.28;0.90;;;;;;;;;;6161407;23;20528;-41
2022/01/02 13:40:21;;;;;;;6.00;1.00;;;;;;;;;;6176521;23;20393;-42
2022/01/02 13:42:47;;;;;;;1.88;0.70;;;;;;;;;;6148736;23;20460;-41
2022/01/02 13:45:15;;;;;;;2.83;0.75;;;;;;;;;;6174532;23;20028;-43
2022/01/02 13:47:40;;;;;;;2.45;0.60;;;;;;;;;;6175467;23;20009;-43
2022/01/02 13:50:07;;;;;;;0.77;0.70;;;;;;;;;;6171895;23;20465;-44
2022/01/02 13:52:32;;;;;;;2.30;0.52;;;;;;;;;;6171568;23;20562;-43
2022/01/02 13:55:10;;;;;;;1.48;0.60;;;;;;;;;;6173872;23;20418;-41
2022/01/02 13:57:35;;;;;;;1.52;0.52;;;;;;;;;;6173475;23;20019;-46
2022/01/02 14:00:14;;;;;;;2.17;0.50;;;;;;;;;;6175415;23;20009;-44
2022/01/02 14:02:39;;;;;;;0.40;0.40;;;;;;;;;;6174407;23;20020;-43
2022/01/02 14:05:06;;;;;;;0.70;0.70;;;;;;;;;;6174986;23;20025;-42
2022/01/02 14:07:34;;;;;;;0.45;0.40;;;;;;;;;;6174959;23;20643;-44
2022/01/02 14:10:03;;;;;;;2.35;0.70;;;;;;;;;;6147954;23;20082;-44
2022/01/02 14:12:31;;;;;;;3.80;0.60;;;;;;;;;;6173417;23;20079;-43
2022/01/02 14:15:13;;;;;;;2.28;1.25;;;;;;;;;;6176497;23;20088;-42
2022/01/02 14:17:45;;;;;;;1.83;0.80;;;;;;;;;;6175653;23;20009;-44
2022/01/02 14:20:13;;;;;;;4.15;0.63;;;;;;;;;;6173021;23;20017;-44
2022/01/02 14:22:41;;;;;;;0.93;0.77;;;;;;;;;;6176430;23;20091;-44
2022/01/02 14:25:06;;;;;;;1.02;0.65;;;;;;;;;;6150778;23;20069;-43
2022/01/02 14:27:31;;;;;;;1.52;0.80;;;;;;;;;;6176963;23;20016;-42
2022/01/02 14:29:57;;;;;;;1.98;1.00;;;;;;;;;;6177733;23;20047;-43
2022/01/02 14:32:23;;;;;;;2.30;0.85;;;;;;;;;;6176668;23;20067;-42
2022/01/02 14:34:48;;;;;;;2.97;1.33;;;;;;;;;;6178497;23;20437;-43
2022/01/02 14:37:15;;;;;;;1.65;0.77;;;;;;;;;;6176252;23;20060;-42
2022/01/02 14:39:41;;;;;;;2.92;1.23;;;;;;;;;;6151008;23;20448;-45
2022/01/02 14:42:06;;;;;;;2.55;1.10;;;;;;;;;;6177302;23;20005;-41
2022/01/02 14:44:32;;;;;;;1.80;0.70;;;;;;;;;;6177551;23;20775;-41
2022/01/02 14:46:58;;;;;;;1.77;0.57;;;;;;;;;;6151612;23;20556;-41